createdAt,value
2018-09-14T00:01:32.873Z,101635.70
2018-09-14T00:04:02.127Z,101632.50
2018-09-14T00:06:31.607Z,101625.63
2018-09-14T00:09:00.924Z,101631.92
2018-09-14T00:11:30.509Z,101633.17
2018-09-14T00:13:59.832Z,101635.34
2018-09-14T00:16:28.986Z,101627.88
2018-09-14T00:18:58.140Z,101628.76
2018-09-14T00:21:27.493Z,101621.05
2018-09-14T00:23:56.632Z,101623.13
2018-09-14T00:26:26.162Z,101622.68
2018-09-14T00:28:55.662Z,101629.53
2018-09-14T00:31:25.150Z,101629.33
2018-09-14T00:33:54.356Z,101623.57
2018-09-14T00:36:23.922Z,101621.66
2018-09-14T00:38:53.407Z,101619.16
2018-09-14T00:41:22.626Z,101617.58
2018-09-14T00:43:51.875Z,101611.92
2018-09-14T00:46:21.504Z,101613.17
2018-09-14T00:48:50.692Z,101611.84
2018-09-14T00:51:20.019Z,101621.72
2018-09-14T00:53:49.376Z,101620.88
2018-09-14T00:56:18.697Z,101623.94
2018-09-14T00:58:47.985Z,101615.94
2018-09-14T01:01:17.473Z,101612.62
2018-09-14T01:03:46.706Z,101619.30
2018-09-14T01:06:15.925Z,101618.00
2018-09-14T01:08:51.567Z,101618.20
2018-09-14T01:11:20.576Z,101616.27
2018-09-14T01:13:49.724Z,101617.09
2018-09-14T01:16:18.954Z,101618.27
2018-09-14T01:18:48.144Z,101620.89
2018-09-14T01:21:17.548Z,101620.05
2018-09-14T01:23:46.700Z,101626.97
2018-09-14T01:26:16.132Z,101626.77
2018-09-14T01:28:45.323Z,101624.56
2018-09-14T01:31:14.858Z,101625.39
2018-09-14T01:33:44.545Z,101625.10
2018-09-14T01:36:13.856Z,101618.48
2018-09-14T01:39:45.933Z,101619.85
2018-09-14T01:42:15.315Z,101619.30
2018-09-14T01:44:44.503Z,101619.31
2018-09-14T01:47:14.069Z,101617.42
2018-09-14T01:49:46.273Z,101609.58
2018-09-14T01:52:15.693Z,101616.05
2018-09-14T01:54:44.979Z,101606.19
2018-09-14T01:57:14.220Z,101606.45
2018-09-14T01:59:43.165Z,101592.96
2018-09-14T02:02:12.422Z,101606.13
2018-09-14T02:04:41.673Z,101600.88
2018-09-14T02:07:10.990Z,101603.59
2018-09-14T02:09:40.384Z,101603.78
2018-09-14T02:12:09.498Z,101605.70
2018-09-14T02:14:38.728Z,101604.13
2018-09-14T02:17:08.019Z,101603.91
2018-09-14T02:19:37.352Z,101594.48
2018-09-14T02:22:06.616Z,101603.63
2018-09-14T02:24:35.989Z,101600.95
2018-09-14T02:27:05.307Z,101597.29
2018-09-14T02:29:34.351Z,101601.56
2018-09-14T02:32:03.904Z,101599.43
2018-09-14T02:34:33.168Z,101606.28
2018-09-14T02:37:02.880Z,101604.62
2018-09-14T02:39:32.295Z,101604.07
2018-09-14T02:42:01.765Z,101603.98
2018-09-14T02:44:30.748Z,101600.89
2018-09-14T02:47:00.020Z,101601.30
2018-09-14T02:49:29.384Z,101598.80
2018-09-14T02:51:58.701Z,101596.27
2018-09-14T02:54:27.983Z,101593.09
2018-09-14T02:56:57.327Z,101597.16
2018-09-14T02:59:26.565Z,101591.03
2018-09-14T03:01:55.918Z,101586.88
2018-09-14T03:04:25.085Z,101581.56
2018-09-14T03:06:54.699Z,101585.16
2018-09-14T03:09:23.847Z,101584.12
2018-09-14T03:11:53.103Z,101585.30
2018-09-14T03:14:22.389Z,101593.52
2018-09-14T03:16:51.606Z,101595.83
2018-09-14T03:19:20.976Z,101590.65
2018-09-14T03:21:50.435Z,101598.09
2018-09-14T03:24:20.083Z,101599.77
2018-09-14T03:26:49.316Z,101591.42
2018-09-14T03:29:18.584Z,101593.09
2018-09-14T03:31:47.700Z,101593.47
2018-09-14T03:34:16.893Z,101592.81
2018-09-14T03:36:46.122Z,101590.59
2018-09-14T03:39:15.434Z,101589.20
2018-09-14T03:41:44.614Z,101598.39
2018-09-14T03:44:14.000Z,101590.44
2018-09-14T03:46:43.323Z,101598.86
2018-09-14T03:49:12.488Z,101593.42
2018-09-14T03:51:41.724Z,101598.65
2018-09-14T03:54:13.738Z,101595.58
2018-09-14T03:56:43.423Z,101599.09
2018-09-14T03:59:12.903Z,101598.05
2018-09-14T04:04:38.241Z,101592.66
2018-09-14T04:07:06.699Z,101597.00
2018-09-14T04:09:35.177Z,101594.78
2018-09-14T04:12:03.581Z,101588.79
2018-09-14T04:14:32.372Z,101598.44
2018-09-14T04:17:00.738Z,101597.33
2018-09-14T04:19:29.127Z,101601.73
2018-09-14T04:21:57.877Z,101603.36
2018-09-14T04:24:26.363Z,101599.22
2018-09-14T04:26:54.654Z,101605.27
2018-09-14T04:29:23.155Z,101604.80
2018-09-14T04:31:51.605Z,101598.09
2018-09-14T04:34:19.950Z,101605.55
2018-09-14T04:36:48.271Z,101604.67
2018-09-14T04:39:16.734Z,101603.84
2018-09-14T04:41:45.106Z,101601.62
2018-09-14T04:44:13.366Z,101600.75
2018-09-14T04:46:41.691Z,101600.69
2018-09-14T04:49:10.358Z,101592.27
2018-09-14T04:51:38.637Z,101600.53
2018-09-14T04:54:07.062Z,101600.36
2018-09-14T04:56:35.370Z,101597.33
2018-09-14T04:59:03.691Z,101597.34
2018-09-14T05:01:32.279Z,101602.58
2018-09-14T05:04:00.670Z,101608.30
2018-09-14T05:06:29.015Z,101609.91
2018-09-14T05:08:57.589Z,101607.91
2018-09-14T05:11:26.016Z,101611.20
2018-09-14T05:13:54.417Z,101608.39
2018-09-14T05:16:23.052Z,101610.55
2018-09-14T05:18:51.398Z,101606.41
2018-09-14T05:21:19.717Z,101616.05
2018-09-14T05:23:48.043Z,101615.64
2018-09-14T05:26:16.314Z,101608.48
2018-09-14T05:28:44.607Z,101610.95
2018-09-14T05:31:12.966Z,101615.30
2018-09-14T05:33:41.586Z,101611.64
2018-09-14T05:36:10.195Z,101622.38
2018-09-14T05:38:39.462Z,101620.37
2018-09-14T05:41:07.829Z,101630.23
2018-09-14T05:43:36.117Z,101624.80
2018-09-14T05:46:04.473Z,101625.41
2018-09-14T05:48:32.959Z,101632.67
2018-09-14T05:51:01.286Z,101630.16
2018-09-14T05:53:29.700Z,101632.58
2018-09-14T05:55:58.135Z,101632.74
2018-09-14T05:58:26.444Z,101633.55
2018-09-14T06:00:55.927Z,101637.40
2018-09-14T06:03:33.425Z,101639.36
2018-09-14T06:06:01.904Z,101643.19
2018-09-14T06:08:30.462Z,101644.25
2018-09-14T06:10:59.133Z,101646.66
2018-09-14T06:13:28.218Z,101644.86
2018-09-14T06:15:56.852Z,101648.30
2018-09-14T06:18:25.219Z,101652.34
2018-09-14T06:20:53.526Z,101656.41
2018-09-14T06:23:22.126Z,101655.84
2018-09-14T06:25:50.828Z,101652.16
2018-09-14T06:28:19.446Z,101660.34
2018-09-14T06:30:47.961Z,101657.27
2018-09-14T06:33:16.262Z,101651.35
2018-09-14T06:35:45.176Z,101659.14
2018-09-14T06:38:13.487Z,101657.73
2018-09-14T06:40:42.230Z,101653.00
2018-09-14T06:43:10.732Z,101659.94
2018-09-14T06:45:39.020Z,101656.02
2018-09-14T06:48:07.554Z,101660.20
2018-09-14T06:50:35.876Z,101658.73
2018-09-14T06:53:04.143Z,101641.67
2018-09-14T06:55:32.450Z,101655.55
2018-09-14T06:58:00.737Z,101652.20
2018-09-14T07:00:29.304Z,101658.27
2018-09-14T07:02:58.091Z,101661.05
2018-09-14T07:05:26.607Z,101666.53
2018-09-14T07:07:55.422Z,101664.64
2018-09-14T07:10:23.705Z,101668.84
2018-09-14T07:12:52.193Z,101672.58
2018-09-14T07:15:20.534Z,101672.86
2018-09-14T07:17:48.974Z,101673.13
2018-09-14T07:20:17.282Z,101673.92
2018-09-14T07:22:45.579Z,101672.58
2018-09-14T07:25:14.447Z,101674.39
2018-09-14T07:27:42.825Z,101676.03
2018-09-14T07:30:11.140Z,101676.64
2018-09-14T07:32:39.686Z,101678.97
2018-09-14T07:35:09.162Z,101678.08
2018-09-14T07:37:37.720Z,101681.27
2018-09-14T07:40:06.046Z,101674.50
2018-09-14T07:42:35.069Z,101682.66
2018-09-14T07:45:03.307Z,101680.20
2018-09-14T07:47:32.353Z,101687.67
2018-09-14T07:50:00.635Z,101684.03
2018-09-14T07:52:30.396Z,101687.47
2018-09-14T07:54:58.811Z,101695.67
2018-09-14T07:57:28.051Z,101685.50
2018-09-14T07:59:58.126Z,101689.39
2018-09-14T08:02:26.791Z,101694.55
2018-09-14T08:04:55.153Z,101699.04
2018-09-14T08:07:23.949Z,101700.88
2018-09-14T08:09:52.539Z,101703.55
2018-09-14T08:12:21.088Z,101700.98
2018-09-14T08:14:50.179Z,101708.63
2018-09-14T08:17:19.064Z,101712.34
2018-09-14T08:19:47.623Z,101710.01
2018-09-14T08:22:16.444Z,101705.78
2018-09-14T08:24:45.408Z,101703.61
2018-09-14T08:27:14.947Z,101702.02
2018-09-14T08:29:43.238Z,101702.56
2018-09-14T08:32:12.194Z,101699.48
2018-09-14T08:34:40.503Z,101704.31
2018-09-14T08:37:09.186Z,101704.29
2018-09-14T08:39:37.639Z,101711.44
2018-09-14T08:42:06.194Z,101705.78
2018-09-14T08:44:34.634Z,101709.55
2018-09-14T08:47:03.008Z,101701.48
2018-09-14T08:49:32.236Z,101707.78
2018-09-14T08:52:00.643Z,101700.06
2018-09-14T08:54:28.953Z,101698.45
2018-09-14T08:57:00.775Z,101699.50
2018-09-14T08:59:29.249Z,101697.22
2018-09-14T09:01:57.654Z,101696.80
2018-09-14T09:04:26.330Z,101699.22
2018-09-14T09:06:54.627Z,101696.23
2018-09-14T09:09:22.960Z,101701.26
2018-09-14T09:11:51.287Z,101698.28
2018-09-14T09:14:19.812Z,101702.71
2018-09-14T09:16:48.314Z,101699.62
2018-09-14T09:19:16.623Z,101696.98
2018-09-14T09:21:45.051Z,101696.80
2018-09-14T09:24:13.361Z,101701.11
2018-09-14T09:26:42.754Z,101698.48
2018-09-14T09:29:11.508Z,101695.52
2018-09-14T09:31:40.157Z,101695.41
2018-09-14T09:34:09.455Z,101694.78
2018-09-14T09:36:37.911Z,101693.34
2018-09-14T09:39:09.726Z,101698.67
2018-09-14T09:41:38.327Z,101690.44
2018-09-14T09:44:07.147Z,101688.70
2018-09-14T09:46:35.415Z,101691.16
2018-09-14T09:49:03.705Z,101693.02
2018-09-14T09:51:32.112Z,101695.80
2018-09-14T09:54:02.209Z,101691.68
2018-09-14T09:56:31.190Z,101688.97
2018-09-14T09:58:59.655Z,101682.81
2018-09-14T10:01:34.692Z,101684.93
2018-09-14T10:04:18.376Z,101674.64
2018-09-14T10:06:48.162Z,101679.31
2018-09-14T10:09:16.631Z,101678.25
2018-09-14T10:11:46.729Z,101675.94
2018-09-14T10:14:15.190Z,101677.07
2018-09-14T10:16:44.449Z,101674.29
2018-09-14T10:19:13.346Z,101677.84
2018-09-14T10:21:41.935Z,101671.69
2018-09-14T10:24:11.006Z,101672.43
2018-09-14T10:26:39.519Z,101676.20
2018-09-14T10:29:08.005Z,101682.73
2018-09-14T10:31:39.755Z,101678.81
2018-09-14T10:34:08.555Z,101676.66
2018-09-14T10:36:36.834Z,101672.99
2018-09-14T10:39:09.917Z,101678.48
2018-09-14T10:41:38.275Z,101677.16
2018-09-14T10:44:07.045Z,101672.50
2018-09-14T10:46:35.698Z,101680.36
2018-09-14T10:49:05.135Z,101677.42
2018-09-14T10:51:34.075Z,101677.00
2018-09-14T10:54:02.853Z,101681.14
2018-09-14T10:56:31.839Z,101673.25
2018-09-14T10:59:00.095Z,101677.98
2018-09-14T11:01:34.218Z,101665.70
2018-09-14T11:04:02.686Z,101667.66
2018-09-14T11:06:31.438Z,101667.25
2018-09-14T11:09:00.474Z,101667.44
2018-09-14T11:11:29.978Z,101671.76
2018-09-14T11:13:59.076Z,101666.31
2018-09-14T11:16:27.724Z,101665.56
2018-09-14T11:18:56.124Z,101661.89
2018-09-14T11:21:24.990Z,101662.05
2018-09-14T11:23:53.958Z,101658.84
2018-09-14T11:26:22.366Z,101659.67
2018-09-14T11:28:50.846Z,101657.78
2018-09-14T11:31:24.129Z,101656.23
2018-09-14T11:34:02.935Z,101652.95
2018-09-14T11:36:31.336Z,101652.08
2018-09-14T11:39:00.629Z,101655.63
2018-09-14T11:41:29.376Z,101652.38
2018-09-14T11:43:58.543Z,101651.33
2018-09-14T11:46:33.648Z,101644.78
2018-09-14T11:49:02.007Z,101645.79
2018-09-14T11:51:30.319Z,101651.30
2018-09-14T11:53:58.687Z,101645.66
2018-09-14T11:56:26.998Z,101640.65
2018-09-14T11:59:26.265Z,101640.63
2018-09-14T12:01:55.696Z,101639.58
2018-09-14T12:04:31.071Z,101638.92
2018-09-14T12:06:59.836Z,101632.45
2018-09-14T12:09:28.144Z,101631.00
2018-09-14T12:11:56.508Z,101631.30
2018-09-14T12:14:25.405Z,101626.39
2018-09-14T12:16:53.774Z,101630.86
2018-09-14T12:19:22.054Z,101629.30
2018-09-14T12:21:53.368Z,101632.30
2018-09-14T12:24:21.841Z,101617.16
2018-09-14T12:26:50.378Z,101615.13
2018-09-14T12:29:18.708Z,101618.32
2018-09-14T12:31:48.133Z,101613.62
2018-09-14T12:34:17.249Z,101620.33
2018-09-14T12:36:45.623Z,101616.89
2018-09-14T12:39:13.984Z,101615.19
2018-09-14T12:41:42.686Z,101616.54
2018-09-14T12:44:10.993Z,101616.84
2018-09-14T12:46:39.528Z,101612.52
2018-09-14T12:49:08.982Z,101607.16
2018-09-14T12:51:38.997Z,101607.86
2018-09-14T12:54:08.939Z,101607.14
2018-09-14T12:56:37.966Z,101600.63
2018-09-14T12:59:09.627Z,101612.25
2018-09-14T13:01:38.134Z,101614.23
2018-09-14T13:04:06.529Z,101614.13
2018-09-14T13:06:38.021Z,101606.83
2018-09-14T13:09:08.714Z,101586.27
2018-09-14T13:11:38.050Z,101607.31
2018-09-14T13:14:06.418Z,101599.72
2018-09-14T13:16:35.280Z,101601.03
2018-09-14T13:19:04.411Z,101575.05
2018-09-14T13:21:33.948Z,101578.25
2018-09-14T13:24:03.573Z,101575.03
2018-09-14T13:26:34.709Z,101578.81
2018-09-14T13:29:03.520Z,101577.52
2018-09-14T13:31:32.525Z,101577.30
2018-09-14T13:34:01.704Z,101564.73
2018-09-14T13:36:30.977Z,101564.52
2018-09-14T13:38:59.817Z,101559.02
2018-09-14T13:41:28.873Z,101562.77
2018-09-14T13:43:57.700Z,101564.23
2018-09-14T13:46:26.646Z,101568.65
2018-09-14T13:48:56.093Z,101565.28
2018-09-14T13:51:24.413Z,101563.69
2018-09-14T13:53:53.187Z,101560.56
2018-09-14T13:56:22.043Z,101566.94
2018-09-14T13:58:50.352Z,101560.84
2018-09-14T14:01:18.930Z,101560.66
2018-09-14T14:03:47.289Z,101565.64
2018-09-14T14:06:16.360Z,101562.27
2018-09-14T14:08:45.824Z,101561.95
2018-09-14T14:11:14.783Z,101554.02
2018-09-14T14:13:43.493Z,101548.85
2018-09-14T14:16:12.399Z,101550.87
2018-09-14T14:18:40.774Z,101549.38
2018-09-14T14:21:09.716Z,101546.09
2018-09-14T14:23:39.266Z,101539.92
2018-09-14T14:26:07.834Z,101532.64
2018-09-14T14:28:36.442Z,101533.44
2018-09-14T14:31:05.906Z,101533.09
2018-09-14T14:33:34.406Z,101533.14
2018-09-14T14:36:03.700Z,101532.55
2018-09-14T14:38:32.745Z,101528.26
2018-09-14T14:41:01.584Z,101527.68
2018-09-14T14:43:30.239Z,101515.25
2018-09-14T14:46:00.002Z,101519.62
2018-09-14T14:48:28.484Z,101514.20
2018-09-14T14:50:56.906Z,101517.81
2018-09-14T14:53:25.196Z,101523.87
2018-09-14T14:55:54.259Z,101500.56
2018-09-14T14:58:22.542Z,101506.97
2018-09-14T15:00:51.418Z,101504.03
2018-09-14T15:03:21.018Z,101505.55
2018-09-14T15:05:50.397Z,101508.39
2018-09-14T15:08:18.807Z,101501.22
2018-09-14T15:10:47.642Z,101504.35
2018-09-14T15:13:16.447Z,101502.17
2018-09-14T15:15:46.240Z,101502.38
2018-09-14T15:18:14.921Z,101500.48
2018-09-14T15:20:43.996Z,101493.73
2018-09-14T15:23:13.398Z,101493.91
2018-09-14T15:25:43.299Z,101500.95
2018-09-14T15:28:11.634Z,101502.87
2018-09-14T15:30:40.715Z,101494.89
2018-09-14T15:33:10.416Z,101501.22
2018-09-14T15:35:40.246Z,101498.22
2018-09-14T15:38:08.755Z,101494.87
2018-09-14T15:40:38.808Z,101489.98
2018-09-14T15:43:07.850Z,101493.48
2018-09-14T15:45:37.265Z,101491.98
2018-09-14T15:48:06.166Z,101491.59
2018-09-14T15:50:35.911Z,101493.16
2018-09-14T15:53:05.036Z,101486.27
2018-09-14T15:55:33.357Z,101481.15
2018-09-14T15:58:02.715Z,101478.55
2018-09-14T16:00:31.066Z,101477.97
2018-09-14T16:02:59.451Z,101476.84
2018-09-14T16:05:28.753Z,101477.70
2018-09-14T16:07:57.271Z,101476.95
2018-09-14T16:10:26.477Z,101480.67
2018-09-14T16:12:55.221Z,101473.39
2018-09-14T16:15:23.660Z,101477.24
2018-09-14T16:17:52.677Z,101470.45
2018-09-14T16:20:21.427Z,101479.43
2018-09-14T16:22:49.886Z,101480.84
2018-09-14T16:25:18.828Z,101481.47
2018-09-14T16:27:47.667Z,101478.04
2018-09-14T16:30:16.173Z,101472.41
2018-09-14T16:32:46.582Z,101475.62
2018-09-14T16:35:14.927Z,101479.45
2018-09-14T16:37:43.853Z,101481.70
2018-09-14T16:40:12.212Z,101481.00
2018-09-14T16:42:40.931Z,101478.50
2018-09-14T16:45:10.435Z,101475.22
2018-09-14T16:47:39.649Z,101475.96
2018-09-14T16:50:07.982Z,101478.59
2018-09-14T16:52:37.104Z,101475.02
2018-09-14T16:55:05.990Z,101471.02
2018-09-14T16:57:35.357Z,101481.95
2018-09-14T17:00:05.578Z,101474.09
2018-09-14T17:02:34.546Z,101480.40
2018-09-14T17:05:03.514Z,101483.74
2018-09-14T17:07:33.587Z,101476.39
2018-09-14T17:10:02.088Z,101476.72
2018-09-14T17:12:31.073Z,101468.36
2018-09-14T17:14:59.350Z,101476.03
2018-09-14T17:17:28.054Z,101475.05
2018-09-14T17:19:56.340Z,101472.32
2018-09-14T17:22:25.020Z,101469.34
2018-09-14T17:24:53.903Z,101470.63
2018-09-14T17:27:23.305Z,101471.76
2018-09-14T17:29:52.683Z,101472.47
2018-09-14T17:32:21.302Z,101474.89
2018-09-14T17:34:49.937Z,101473.22
2018-09-14T17:37:19.142Z,101470.50
2018-09-14T17:39:47.624Z,101472.83
2018-09-14T17:42:16.101Z,101478.28
2018-09-14T17:44:44.894Z,101475.91
2018-09-14T17:47:14.980Z,101478.66
2018-09-14T17:49:43.525Z,101481.57
2018-09-14T17:52:12.850Z,101485.05
2018-09-14T17:54:41.441Z,101484.48
2018-09-14T17:57:10.822Z,101480.97
2018-09-14T17:59:46.476Z,101483.18
2018-09-14T18:02:15.853Z,101484.57
2018-09-14T18:04:45.535Z,101490.17
2018-09-14T18:07:13.934Z,101487.33
2018-09-14T18:09:43.803Z,101482.97
2018-09-14T18:12:12.781Z,101485.42
2018-09-14T18:14:41.378Z,101493.99
2018-09-14T18:17:11.803Z,101495.71
2018-09-14T18:19:40.346Z,101493.31
2018-09-14T18:22:08.730Z,101482.17
2018-09-14T18:24:37.488Z,101484.82
2018-09-14T18:27:06.928Z,101490.19
2018-09-14T18:29:36.640Z,101483.52
2018-09-14T18:32:05.413Z,101485.61
2018-09-14T18:34:42.892Z,101487.75
2018-09-14T18:37:13.068Z,101491.13
2018-09-14T18:39:50.607Z,101491.42
2018-09-14T18:42:24.246Z,101486.28
2018-09-14T18:44:54.097Z,101493.84
2018-09-14T18:47:23.125Z,101493.55
2018-09-14T18:49:51.803Z,101494.37
2018-09-14T18:52:20.858Z,101487.56
2018-09-14T18:54:50.573Z,101495.05
2018-09-14T18:57:19.492Z,101488.59
2018-09-14T18:59:49.032Z,101489.47
2018-09-14T19:02:19.509Z,101488.17
2018-09-14T19:04:48.973Z,101492.69
2018-09-14T19:07:19.649Z,101491.15
2018-09-14T19:09:48.051Z,101490.86
2018-09-14T19:12:16.552Z,101486.59
2018-09-14T19:14:45.239Z,101494.09
2018-09-14T19:17:14.254Z,101493.82
2018-09-14T19:19:42.782Z,101497.89
2018-09-14T19:22:11.265Z,101497.41
2018-09-14T19:24:40.977Z,101498.39
2018-09-14T19:27:09.392Z,101505.85
2018-09-14T19:29:38.246Z,101503.70
2018-09-14T19:32:07.202Z,101510.24
2018-09-14T19:34:35.829Z,101504.97
2018-09-14T19:37:05.463Z,101500.63
2018-09-14T19:39:40.802Z,101499.64
2018-09-14T19:42:09.466Z,101505.95
2018-09-14T19:44:38.869Z,101505.38
2018-09-14T19:47:09.039Z,101506.27
2018-09-14T19:49:41.082Z,101508.02
2018-09-14T19:52:10.478Z,101505.39
2018-09-14T19:54:39.757Z,101504.12
2018-09-14T19:57:10.760Z,101502.70
2018-09-14T19:59:40.070Z,101506.70
2018-09-14T20:02:09.284Z,101500.70
2018-09-14T20:04:38.361Z,101505.27
2018-09-14T20:07:07.225Z,101507.08
2018-09-14T20:09:35.822Z,101508.62
2018-09-14T20:12:06.268Z,101507.02
2018-09-14T20:14:34.606Z,101506.00
2018-09-14T20:17:02.905Z,101505.98
2018-09-14T20:19:31.942Z,101509.86
2018-09-14T20:22:00.748Z,101505.17
2018-09-14T20:24:29.216Z,101509.16
2018-09-14T20:26:58.086Z,101515.58
2018-09-14T20:29:26.760Z,101512.77
2018-09-14T20:31:55.596Z,101511.16
2018-09-14T20:34:23.950Z,101504.70
2018-09-14T20:36:52.683Z,101499.86
2018-09-14T20:39:21.075Z,101498.65
2018-09-14T20:41:50.007Z,101499.69
2018-09-14T20:44:18.667Z,101496.95
2018-09-14T20:46:47.037Z,101493.48
2018-09-14T20:49:15.755Z,101491.75
2018-09-14T20:51:44.201Z,101494.72
2018-09-14T20:54:12.950Z,101491.19
2018-09-14T20:56:41.378Z,101491.51
2018-09-14T20:59:09.839Z,101497.77
2018-09-14T21:01:38.589Z,101497.83
2018-09-14T21:04:07.167Z,101496.12
2018-09-14T21:06:40.191Z,101498.29
2018-09-14T21:09:10.980Z,101503.13
2018-09-14T21:11:40.035Z,101498.34
2018-09-14T21:14:12.381Z,101497.98
2018-09-14T21:16:41.357Z,101503.86
2018-09-14T21:19:13.077Z,101493.33
2018-09-14T21:21:42.641Z,101500.45
2018-09-14T21:24:11.479Z,101497.34
2018-09-14T21:26:40.109Z,101498.14
2018-09-14T21:29:11.535Z,101494.55
2018-09-14T21:31:39.915Z,101498.34
2018-09-14T21:34:09.374Z,101492.35
2018-09-14T21:36:38.743Z,101490.02
2018-09-14T21:39:09.487Z,101481.98
2018-09-14T21:41:38.345Z,101482.74
2018-09-14T21:44:07.642Z,101493.53
2018-09-14T21:46:36.595Z,101482.74
2018-09-14T21:49:05.205Z,101486.62
2018-09-14T21:51:34.163Z,101484.39
2018-09-14T21:54:03.227Z,101477.12
2018-09-14T21:56:32.008Z,101485.94
2018-09-14T21:59:00.346Z,101483.50
2018-09-14T22:01:30.514Z,101490.38
2018-09-14T22:04:00.165Z,101490.67
2018-09-14T22:06:28.781Z,101485.47
2018-09-14T22:08:57.717Z,101485.70
2018-09-14T22:11:29.091Z,101482.45
2018-09-14T22:13:57.764Z,101488.73
2018-09-14T22:16:26.819Z,101483.40
2018-09-14T22:18:55.146Z,101482.91
2018-09-14T22:21:23.620Z,101477.31
2018-09-14T22:23:51.921Z,101482.55
2018-09-14T22:26:20.207Z,101485.27
2018-09-14T22:28:55.334Z,101471.48
2018-09-14T22:31:23.783Z,101476.30
2018-09-14T22:33:52.066Z,101472.77
2018-09-14T22:36:20.812Z,101465.73
2018-09-14T22:38:49.138Z,101475.97
2018-09-14T22:41:17.454Z,101481.09
2018-09-14T22:43:46.354Z,101469.32
2018-09-14T22:46:15.870Z,101468.47
2018-09-14T22:48:44.214Z,101465.20
2018-09-14T22:51:12.521Z,101461.30
2018-09-14T22:53:41.286Z,101471.00
2018-09-14T22:56:09.683Z,101464.64
2018-09-14T22:58:37.979Z,101470.70
2018-09-14T23:01:11.542Z,101469.05
2018-09-14T23:03:40.261Z,101464.16
2018-09-14T23:06:10.527Z,101462.31
2018-09-14T23:08:48.709Z,101461.23
2018-09-14T23:11:17.128Z,101461.75
2018-09-14T23:13:45.976Z,101462.08
2018-09-14T23:16:14.279Z,101467.20
2018-09-14T23:18:44.066Z,101467.02
2018-09-14T23:21:19.235Z,101470.72
2018-09-14T23:23:47.714Z,101466.96
2018-09-14T23:26:19.308Z,101464.44
2018-09-14T23:28:47.569Z,101468.23
2018-09-14T23:31:15.833Z,101472.20
2018-09-14T23:33:44.357Z,101467.61
2018-09-14T23:36:13.154Z,101457.30
2018-09-14T23:38:41.428Z,101462.75
2018-09-14T23:41:09.720Z,101459.04
2018-09-14T23:43:37.993Z,101453.87
2018-09-14T23:46:07.053Z,101458.80
2018-09-14T23:48:35.399Z,101456.91
2018-09-14T23:51:04.102Z,101460.54
2018-09-14T23:53:32.413Z,101456.33
2018-09-14T23:56:00.727Z,101455.58
2018-09-14T23:58:29.053Z,101448.30
